メインページ
METAR-TAF:

METAR-TAF

空港 :

秋田空港

秋田, 日本

緯度: 39-37N, 経度: 140-13E, 海抜: 93m

現時点の気象観測

当レポートは47分前の11:00(UTC)に作成
西の風 10kt
気温 11°C
湿度 82%
気圧 1022 hPa
視程10km以上
高度2000ftの雲はほとんどない

METAR: RJSK 201100Z 28010KT 9999 FEW020 11/08 Q1022

時間: 20:47 (11:47 UTC)

予報

当レポートは42分前の11:05(UTC)に作成
予報は20日の 12時(UTC)から 21日の 18時(UTC)まで有効
西/北西の風 5kt
視程10km以上
高度2000ftの雲はほとんどない
20日の 15時(UTC)から 20日の 17時(UTC)まで徐々に
南東の風 4kt
視程: 3000m
20日の 18時(UTC)から 20日の 21時(UTC)まで一時的に
視程: 0700m
高度100ftの雲はほとんどない
高度300ftの千切れ雲あり
20日の 22時(UTC)から 21日の 00時(UTC)まで徐々に
西の風 10kt
視程10km以上
21日の 12時(UTC)から 21日の 15時(UTC)まで徐々に
南東の風 4kt

TAF: RJSK 201105Z 2012/2118 30005KT 9999 FEW020 BECMG 2015/2017 13004KT 3000 BR TEMPO 2018/2021 0700 FG FEW001 BKN003 BECMG 2022/2100 28010KT 9999 NSW BECMG 2112/2115 13004KT

4,000以上の空港の気象観測と天気予報(METAR報とTAF報)

利用可能な観測所は地図上に黄色い丸と赤い丸で示す。

丸の上にカーソルを重ねると観測所名を参照できる。

次にクリックすると気象観測と天気予報を参照できる。

マップの切り替え:黒色「×」印の緑ボタンをクリックして拡大、「-」印の緑ボタンをクリックして縮小、緑色の三角印をクリックして隣りの地図に切り替え


METAR-TAF: